Skip to main content

NOAA/GLERL Met Station at Muskegon, MI

Previous 5 days (top of hour only)
See also Previous 3 Hours (2 minute increments)
Jump down to Data
Switch to [English][Metric]
Zoom: Click and drag, Pan: shift-click and drag, Unzoom: double-click, Unzoom All






Note: Speed = mean wind during 2-minute period at top of hour,
Gust = max wind during 2-minute period at top of hour,
Peak = max wind during entire hour.
• See also 5-day windrose plot


NOAA/GLERL Met Station at Muskegon, MI

Previous 5 days (top of hour only)
See also Previous 3 Hours (2 minute increments)
Jump up to Graphs
Switch to [English][Metric]
                  Wind  Wind  Wind   Air   Dew   Rel     Sta   PAR
                   Spd   Gst   Dir  Temp    Pt   Hum    Pres uE/m2/
YYYY-MM-DD   EDT   kts   kts   deg     F     F     %   in Hg   sec
2021-04-19 00:00 -99.0 -99.0   -99   0.0   0.0   0.0    0.00     0
2021-04-18 03:00   7.8   8.6    71  40.3  28.3  61.9   29.31     2
2021-04-18 02:00   8.0   9.3    41  41.2  28.8  61.0   29.31     2
2021-04-18 01:00   7.0   8.6     2  40.3  28.9  63.6   29.31     2
2021-04-18 00:00   7.0   8.6   355  40.6  37.7  89.0   29.31     2
2021-04-17 23:00   8.7   9.9   347  41.0  38.4  90.3   29.31     2
2021-04-17 22:00   5.4   6.4    12  42.3  32.7  68.6   29.31     2
2021-04-17 21:00   9.9  10.9   348  42.3  39.4  89.6   29.29     2
2021-04-17 20:00  11.9  13.8   350  40.5  36.4  85.2   29.30   184
2021-04-17 19:00  17.3  17.9   347  42.1  35.5  77.2   29.30  1139
2021-04-17 18:00  16.9  17.9   345  42.3  34.7  74.2   29.30  1567
2021-04-17 17:00  15.9  17.9   345  43.3  34.6  71.1   29.30  1708
2021-04-17 16:00  18.9  20.8   341  43.0  33.9  69.9   29.31  1776
2021-04-17 15:00  18.3  21.0   343  43.7  30.8  60.1   29.32  1806
2021-04-17 14:00  16.3  17.9   340  43.2  33.7  69.0   29.32  1817
2021-04-17 13:00  16.1  16.9   341  42.8  36.6  78.6   29.32  1795
2021-04-17 12:00  10.7  11.1   337  43.0  36.6  77.9   29.33  1747
2021-04-17 11:00   6.4   7.2   321  41.7  35.1  77.2   29.34  1678
2021-04-17 10:00   5.4   6.0   325  40.3  33.9  77.6   29.34  1557
2021-04-17 09:00   3.7   4.5    32  41.4  32.4  70.2   29.34  1322
2021-04-17 08:00   4.3   6.2    31  36.7  31.4  81.1   29.33   838
2021-04-17 07:00   7.2  10.1    45  33.8  30.8  88.5   29.31    20
2021-04-17 06:00   5.4   6.4    28  33.6  30.8  89.2   29.31     2
2021-04-17 05:00   6.4   7.0    56  34.9  31.7  88.0   29.32     2
2021-04-17 04:00   2.5   3.7    32  35.4  31.7  86.3   29.32     2
2021-04-17 03:00   6.6   7.8    61  36.9  32.5  84.1   29.32     2
2021-04-17 02:00   8.6  10.5    69  37.6  32.8  82.6   29.32     2
2021-04-17 01:00   7.4   9.3    67  38.1  32.5  80.0   29.32     2
2021-04-17 00:00   8.6  10.5    52  38.5  32.6  79.0   29.33     2
2021-04-16 23:00   7.4   8.9    32  38.8  32.9  79.1   29.33     2
2021-04-16 22:00  13.0  14.0   339  41.0  37.2  86.3   29.33     2
2021-04-16 21:00   8.6   9.9   348  40.8  34.5  78.0   29.32     2
2021-04-16 20:00  16.3  19.2   352  40.8  35.2  80.0   29.32   401
2021-04-16 19:00  15.2  16.3   346  43.2  36.1  76.0   29.31  1213
2021-04-16 18:00  19.4  22.2   354  41.4  34.5  76.3   29.31  1549
2021-04-16 17:00  20.6  23.3   337  41.0  35.4  80.3   29.31  1703
2021-04-16 16:00  22.0  23.5   336  41.5  35.6  79.3   29.31  1768
2021-04-16 15:00  21.4  23.1   341  40.8  34.8  78.8   29.32  1810
2021-04-16 14:00  21.8  23.3   345  39.9  34.5  80.6   29.34  1770
2021-04-16 13:00  19.4  21.4   343  39.2  34.2  82.1   29.36  1128
2021-04-16 12:00  17.7  19.2   346  38.8  33.8  82.0   29.36   805
2021-04-16 11:00  17.7  19.6   339  39.2  34.3  82.3   29.36   686
2021-04-16 10:00  12.4  15.6    28  39.7  32.3  74.3   29.35   803
2021-04-16 09:00   6.0   8.0    10  38.7  32.1  77.1   29.36   314
2021-04-16 08:00  11.3  12.4    11  37.4  31.4  78.7   29.36   117
2021-04-16 07:00   6.8   8.4    16  36.9  31.6  81.1   29.35    11
2021-04-16 06:00   7.8  10.3    16  36.7  31.3  80.5   29.35     2
2021-04-16 05:00   9.7  13.4     4  38.1  31.6  77.0   29.35     2
2021-04-16 04:00   8.6  10.5    11  38.3  32.8  80.2   29.36     2
2021-04-16 03:00   7.4   8.6     7  39.2  32.9  78.0   29.36     2
2021-04-16 02:00  11.7  14.4   358  39.7  35.4  84.3   29.37     2
2021-04-16 01:00  10.1  11.5     7  40.1  33.8  78.0   29.37     2
2021-04-16 00:00  15.9  16.9   344  40.3  36.6  86.7   29.36     2
2021-04-15 23:00  13.2  14.4   338  40.3  36.7  86.8   29.37     2
2021-04-15 22:00  13.8  15.4   343  40.1  36.2  85.8   29.36     2
2021-04-15 21:00  12.4  13.0   328  39.9  36.1  86.2   29.36     2
2021-04-15 20:00   9.7  10.7   352  41.2  36.5  83.1   29.35    90
2021-04-15 19:00  11.3  12.8    17  44.4  32.5  62.7   29.36   309
2021-04-15 18:00  10.5  14.4   353  43.7  35.4  72.4   29.36   364
2021-04-15 17:00  21.8  23.5   346  42.3  34.3  73.2   29.36   826
2021-04-15 16:00  23.9  27.6   355  41.5  33.4  72.4   29.36  1027
2021-04-15 15:00  25.3  27.4   345  40.5  34.4  78.6   29.36   829
2021-04-15 14:00  22.4  25.9   351  41.4  34.8  77.1   29.35  1288
2021-04-15 13:00  25.5  28.8   346  40.3  34.2  78.8   29.35   883
2021-04-15 12:00  21.4  23.7   356  40.8  34.0  76.3   29.34   951
2021-04-15 11:00  17.9  23.7     2  39.0  33.6  80.6   29.35   358
2021-04-15 10:00  21.4  25.9   356  39.2  33.6  80.2   29.34   604
2021-04-15 09:00  16.1  21.2     0  38.5  34.3  84.9   29.33   255
2021-04-15 08:00  22.0  26.6   351  38.8  36.0  89.4   29.32    71
2021-04-15 07:00  24.1  27.6   348  38.5  36.0  90.8   29.32     4
2021-04-15 06:00  24.1  26.6   344  39.0  36.6  90.8   29.31     2
2021-04-15 05:00  18.7  20.4   335  39.7  37.3  91.0   29.31     2
2021-04-15 04:00  16.9  18.5   316  39.6  36.0  86.8   29.31     2
2021-04-15 03:00  19.4  20.6   310  39.7  34.5  81.2   29.33     2
2021-04-15 02:00  16.5  18.7   307  39.9  34.3  80.0   29.35     2
2021-04-15 01:00  17.1  18.3   298  40.1  33.4  76.7   29.36     2
2021-04-15 00:00  15.2  16.9   299  39.9  33.6  77.8   29.37     2
2021-04-14 23:00  14.4  15.9   292  39.7  33.4  77.9   29.39     2
2021-04-14 22:00  13.6  14.4   287  39.6  32.3  74.9   29.40     2
2021-04-14 21:00  10.9  12.1   293  39.2  31.7  74.2   29.41     2
2021-04-14 20:00  10.3  11.3   301  39.6  32.0  74.2   29.41   418
2021-04-14 19:00  10.5  12.2   304  39.4  32.5  76.1   29.41   258
2021-04-14 18:00   9.3  11.5   309  39.0  30.5  71.3   29.42   359
2021-04-14 17:00   8.2  10.1   298  39.0  31.9  75.2   29.42   596
2021-04-14 16:00   8.2   9.3   303  38.7  31.6  75.6   29.43   336
2021-04-14 15:00   6.2   7.6   311  39.0  31.5  74.2   29.44   828
2021-04-14 14:00   8.0   9.1   326  39.6  31.6  72.8   29.45  1306
2021-04-14 13:00   9.9  11.7   298  39.9  29.0  64.6   29.46  1206
2021-04-14 12:00  10.5  11.3   305  39.6  27.8  62.5   29.47  1309
2021-04-14 11:00  12.2  13.0   308  39.4  27.7  62.5   29.47   844
2021-04-14 10:00  11.1  12.1   308  39.4  29.2  66.7   29.46  1062
2021-04-14 09:00  12.8  14.2   325  39.6  29.2  66.2   29.45  1290
2021-04-14 08:00  10.1  11.9   331  39.4  32.8  77.0   29.46   187
2021-04-14 07:00   7.6   9.7    12  37.4  30.0  74.4   29.44    11
2021-04-14 06:00  12.8  14.8   339  39.6  33.5  78.8   29.44     2
2021-04-14 05:00  15.2  16.5   285  42.3  33.1  69.7   29.44     2
2021-04-14 04:00  12.6  13.6   279  42.6  36.1  77.4   29.44     2
2021-04-14 03:00  11.9  13.6   261  41.7  37.3  84.1   29.44     2
2021-04-14 02:00  11.3  13.6   211  42.4  37.8  83.4   29.44     2
2021-04-14 01:00  11.1  12.6   196  43.5  35.3  72.5   29.46     2
2021-04-14 00:00   8.2   9.3   184  43.7  34.3  69.2   29.47     2
2021-04-13 23:00   8.2   8.9   190  42.6  38.4  84.7   29.48     2
2021-04-13 22:00   5.1   6.0   179  42.4  34.8  74.2   29.48     2
2021-04-13 21:00   4.7   5.8   213  42.8  36.2  77.3   29.47     2
2021-04-13 20:00   4.5   5.1   231  42.1  36.7  81.0   29.46    38